sensor_id;sensor_type;location;lat;lon;timestamp;P1;durP1;ratioP1;P2;durP2;ratioP2
30185;SDS011;31152;49.190;8.122;2023-12-14T00:01:16;14.07;;;4.88;;
30185;SDS011;31152;49.190;8.122;2023-12-14T00:03:43;10.90;;;4.95;;
30185;SDS011;31152;49.190;8.122;2023-12-14T00:06:11;7.88;;;4.75;;
30185;SDS011;31152;49.190;8.122;2023-12-14T00:08:38;10.23;;;4.80;;
30185;SDS011;31152;49.190;8.122;2023-12-14T00:11:06;8.93;;;5.03;;
30185;SDS011;31152;49.190;8.122;2023-12-14T00:13:35;12.85;;;5.15;;
30185;SDS011;31152;49.190;8.122;2023-12-14T00:16:05;11.95;;;4.63;;
30185;SDS011;31152;49.190;8.122;2023-12-14T00:18:35;9.65;;;4.18;;
30185;SDS011;31152;49.190;8.122;2023-12-14T00:21:03;11.60;;;4.20;;
30185;SDS011;31152;49.190;8.122;2023-12-14T00:23:30;10.05;;;4.13;;
30185;SDS011;31152;49.190;8.122;2023-12-14T00:25:57;13.27;;;4.22;;
30185;SDS011;31152;49.190;8.122;2023-12-14T00:28:24;12.05;;;5.03;;
30185;SDS011;31152;49.190;8.122;2023-12-14T00:30:57;12.25;;;5.05;;
30185;SDS011;31152;49.190;8.122;2023-12-14T00:33:26;7.05;;;4.53;;
30185;SDS011;31152;49.190;8.122;2023-12-14T00:35:58;12.05;;;5.25;;
30185;SDS011;31152;49.190;8.122;2023-12-14T00:38:26;18.08;;;6.43;;
30185;SDS011;31152;49.190;8.122;2023-12-14T00:40:53;14.23;;;5.85;;
30185;SDS011;31152;49.190;8.122;2023-12-14T00:43:20;9.95;;;5.78;;
30185;SDS011;31152;49.190;8.122;2023-12-14T00:45:47;9.43;;;6.13;;
30185;SDS011;31152;49.190;8.122;2023-12-14T00:48:14;11.20;;;5.82;;
30185;SDS011;31152;49.190;8.122;2023-12-14T00:50:41;11.95;;;5.97;;
30185;SDS011;31152;49.190;8.122;2023-12-14T00:53:08;11.60;;;6.13;;
30185;SDS011;31152;49.190;8.122;2023-12-14T00:55:35;8.50;;;5.78;;
30185;SDS011;31152;49.190;8.122;2023-12-14T00:58:01;10.88;;;5.65;;
30185;SDS011;31152;49.190;8.122;2023-12-14T01:00:28;9.75;;;5.95;;
30185;SDS011;31152;49.190;8.122;2023-12-14T01:02:55;14.43;;;6.13;;
30185;SDS011;31152;49.190;8.122;2023-12-14T01:05:22;14.80;;;6.93;;
30185;SDS011;31152;49.190;8.122;2023-12-14T01:07:49;13.18;;;6.28;;
30185;SDS011;31152;49.190;8.122;2023-12-14T01:10:15;12.05;;;6.57;;
30185;SDS011;31152;49.190;8.122;2023-12-14T01:12:42;15.02;;;6.38;;
30185;SDS011;31152;49.190;8.122;2023-12-14T01:15:11;10.77;;;6.60;;
30185;SDS011;31152;49.190;8.122;2023-12-14T01:17:38;10.63;;;6.18;;
30185;SDS011;31152;49.190;8.122;2023-12-14T01:20:05;11.63;;;6.75;;
30185;SDS011;31152;49.190;8.122;2023-12-14T01:22:36;15.30;;;6.40;;
30185;SDS011;31152;49.190;8.122;2023-12-14T01:25:03;13.82;;;6.10;;
30185;SDS011;31152;49.190;8.122;2023-12-14T01:27:30;16.67;;;6.03;;
30185;SDS011;31152;49.190;8.122;2023-12-14T01:29:57;10.32;;;6.32;;
30185;SDS011;31152;49.190;8.122;2023-12-14T01:32:24;14.73;;;6.60;;
30185;SDS011;31152;49.190;8.122;2023-12-14T01:34:50;10.40;;;6.15;;
30185;SDS011;31152;49.190;8.122;2023-12-14T01:37:19;13.52;;;6.43;;
30185;SDS011;31152;49.190;8.122;2023-12-14T01:39:46;11.32;;;5.95;;
30185;SDS011;31152;49.190;8.122;2023-12-14T01:42:18;12.02;;;6.00;;
30185;SDS011;31152;49.190;8.122;2023-12-14T01:44:44;11.55;;;6.13;;
30185;SDS011;31152;49.190;8.122;2023-12-14T01:47:11;12.13;;;5.95;;
30185;SDS011;31152;49.190;8.122;2023-12-14T01:49:38;11.88;;;6.32;;
30185;SDS011;31152;49.190;8.122;2023-12-14T01:52:07;11.52;;;5.93;;
30185;SDS011;31152;49.190;8.122;2023-12-14T01:54:34;12.10;;;6.43;;
30185;SDS011;31152;49.190;8.122;2023-12-14T01:57:01;12.80;;;7.57;;
30185;SDS011;31152;49.190;8.122;2023-12-14T01:59:27;14.02;;;8.13;;
30185;SDS011;31152;49.190;8.122;2023-12-14T02:01:55;14.70;;;8.45;;
30185;SDS011;31152;49.190;8.122;2023-12-14T02:04:23;14.85;;;8.95;;
30185;SDS011;31152;49.190;8.122;2023-12-14T02:06:53;16.05;;;9.27;;
30185;SDS011;31152;49.190;8.122;2023-12-14T02:09:20;14.73;;;9.50;;
30185;SDS011;31152;49.190;8.122;2023-12-14T02:11:47;18.85;;;9.95;;
30185;SDS011;31152;49.190;8.122;2023-12-14T02:14:16;16.15;;;9.93;;
30185;SDS011;31152;49.190;8.122;2023-12-14T02:16:43;19.48;;;10.52;;
30185;SDS011;31152;49.190;8.122;2023-12-14T02:19:12;18.63;;;10.93;;
30185;SDS011;31152;49.190;8.122;2023-12-14T02:21:39;22.38;;;11.55;;
30185;SDS011;31152;49.190;8.122;2023-12-14T02:24:05;19.35;;;11.40;;
30185;SDS011;31152;49.190;8.122;2023-12-14T02:26:32;21.00;;;11.88;;
30185;SDS011;31152;49.190;8.122;2023-12-14T02:28:59;17.42;;;11.32;;
30185;SDS011;31152;49.190;8.122;2023-12-14T02:31:26;24.38;;;13.23;;
30185;SDS011;31152;49.190;8.122;2023-12-14T02:33:52;21.67;;;12.18;;
30185;SDS011;31152;49.190;8.122;2023-12-14T02:36:21;19.42;;;11.93;;
30185;SDS011;31152;49.190;8.122;2023-12-14T02:38:48;21.73;;;12.65;;
30185;SDS011;31152;49.190;8.122;2023-12-14T02:41:17;21.45;;;13.07;;
30185;SDS011;31152;49.190;8.122;2023-12-14T02:43:46;22.60;;;14.27;;
30185;SDS011;31152;49.190;8.122;2023-12-14T02:46:13;21.67;;;12.85;;
30185;SDS011;31152;49.190;8.122;2023-12-14T02:48:41;24.48;;;14.07;;
30185;SDS011;31152;49.190;8.122;2023-12-14T02:51:15;26.15;;;15.05;;
30185;SDS011;31152;49.190;8.122;2023-12-14T02:53:44;19.67;;;12.68;;
30185;SDS011;31152;49.190;8.122;2023-12-14T02:56:13;19.58;;;13.13;;
30185;SDS011;31152;49.190;8.122;2023-12-14T02:58:40;22.75;;;12.95;;
30185;SDS011;31152;49.190;8.122;2023-12-14T03:01:06;19.15;;;12.48;;
30185;SDS011;31152;49.190;8.122;2023-12-14T03:03:33;22.77;;;13.07;;
30185;SDS011;31152;49.190;8.122;2023-12-14T03:06:00;21.95;;;13.73;;
30185;SDS011;31152;49.190;8.122;2023-12-14T03:08:27;27.75;;;13.88;;
30185;SDS011;31152;49.190;8.122;2023-12-14T03:10:54;23.95;;;14.32;;
30185;SDS011;31152;49.190;8.122;2023-12-14T03:13:23;34.53;;;15.93;;
30185;SDS011;31152;49.190;8.122;2023-12-14T03:15:52;29.42;;;15.02;;
30185;SDS011;31152;49.190;8.122;2023-12-14T03:18:19;24.60;;;14.80;;
30185;SDS011;31152;49.190;8.122;2023-12-14T03:20:46;25.17;;;14.43;;
30185;SDS011;31152;49.190;8.122;2023-12-14T03:23:17;22.88;;;13.88;;
30185;SDS011;31152;49.190;8.122;2023-12-14T03:25:46;24.58;;;14.23;;
30185;SDS011;31152;49.190;8.122;2023-12-14T03:28:12;22.10;;;13.25;;
30185;SDS011;31152;49.190;8.122;2023-12-14T03:30:42;23.77;;;14.07;;
30185;SDS011;31152;49.190;8.122;2023-12-14T03:33:08;24.17;;;14.45;;
30185;SDS011;31152;49.190;8.122;2023-12-14T03:35:35;21.35;;;12.98;;
30185;SDS011;31152;49.190;8.122;2023-12-14T03:38:02;22.52;;;12.85;;
30185;SDS011;31152;49.190;8.122;2023-12-14T03:40:31;21.02;;;12.52;;
30185;SDS011;31152;49.190;8.122;2023-12-14T03:43:00;25.58;;;13.02;;
30185;SDS011;31152;49.190;8.122;2023-12-14T03:45:30;21.13;;;12.93;;
30185;SDS011;31152;49.190;8.122;2023-12-14T03:47:57;21.88;;;12.98;;
30185;SDS011;31152;49.190;8.122;2023-12-14T03:50:24;23.40;;;13.63;;
30185;SDS011;31152;49.190;8.122;2023-12-14T03:52:50;24.02;;;13.13;;
30185;SDS011;31152;49.190;8.122;2023-12-14T03:55:17;20.25;;;12.57;;
30185;SDS011;31152;49.190;8.122;2023-12-14T03:57:44;18.85;;;11.35;;
30185;SDS011;31152;49.190;8.122;2023-12-14T04:00:13;17.52;;;10.30;;
30185;SDS011;31152;49.190;8.122;2023-12-14T04:02:40;18.70;;;11.25;;
30185;SDS011;31152;49.190;8.122;2023-12-14T04:05:07;16.95;;;10.48;;
30185;SDS011;31152;49.190;8.122;2023-12-14T04:07:38;21.15;;;9.88;;
30185;SDS011;31152;49.190;8.122;2023-12-14T04:10:11;15.10;;;9.48;;
30185;SDS011;31152;49.190;8.122;2023-12-14T04:12:38;18.75;;;10.38;;
30185;SDS011;31152;49.190;8.122;2023-12-14T04:15:06;16.25;;;9.30;;
30185;SDS011;31152;49.190;8.122;2023-12-14T04:17:34;17.33;;;9.25;;
30185;SDS011;31152;49.190;8.122;2023-12-14T04:20:02;17.88;;;10.02;;
30185;SDS011;31152;49.190;8.122;2023-12-14T04:22:30;19.48;;;9.20;;
30185;SDS011;31152;49.190;8.122;2023-12-14T04:24:59;18.92;;;8.00;;
30185;SDS011;31152;49.190;8.122;2023-12-14T04:27:26;14.60;;;7.50;;
30185;SDS011;31152;49.190;8.122;2023-12-14T04:29:56;13.25;;;8.00;;
30185;SDS011;31152;49.190;8.122;2023-12-14T04:32:25;12.63;;;6.95;;
30185;SDS011;31152;49.190;8.122;2023-12-14T04:34:52;16.10;;;6.00;;
30185;SDS011;31152;49.190;8.122;2023-12-14T04:37:19;11.90;;;6.65;;
30185;SDS011;31152;49.190;8.122;2023-12-14T04:39:47;14.13;;;7.15;;
30185;SDS011;31152;49.190;8.122;2023-12-14T04:42:14;11.73;;;6.15;;
30185;SDS011;31152;49.190;8.122;2023-12-14T04:44:41;13.40;;;6.75;;
30185;SDS011;31152;49.190;8.122;2023-12-14T04:47:08;13.57;;;7.03;;
30185;SDS011;31152;49.190;8.122;2023-12-14T04:49:35;12.27;;;6.25;;
30185;SDS011;31152;49.190;8.122;2023-12-14T04:52:02;16.92;;;6.43;;
30185;SDS011;31152;49.190;8.122;2023-12-14T04:54:29;11.63;;;6.47;;
30185;SDS011;31152;49.190;8.122;2023-12-14T04:56:56;9.90;;;6.53;;
30185;SDS011;31152;49.190;8.122;2023-12-14T04:59:22;15.77;;;6.30;;
30185;SDS011;31152;49.190;8.122;2023-12-14T05:01:50;17.00;;;7.30;;
30185;SDS011;31152;49.190;8.122;2023-12-14T05:04:16;12.45;;;6.13;;
30185;SDS011;31152;49.190;8.122;2023-12-14T05:06:43;13.07;;;5.55;;
30185;SDS011;31152;49.190;8.122;2023-12-14T05:09:10;11.32;;;6.38;;
30185;SDS011;31152;49.190;8.122;2023-12-14T05:11:40;13.60;;;5.82;;
30185;SDS011;31152;49.190;8.122;2023-12-14T05:14:10;16.40;;;6.87;;
30185;SDS011;31152;49.190;8.122;2023-12-14T05:16:37;16.08;;;8.73;;
30185;SDS011;31152;49.190;8.122;2023-12-14T05:19:04;19.55;;;9.75;;
30185;SDS011;31152;49.190;8.122;2023-12-14T05:21:31;15.80;;;9.95;;
30185;SDS011;31152;49.190;8.122;2023-12-14T05:23:58;15.05;;;9.57;;
30185;SDS011;31152;49.190;8.122;2023-12-14T05:26:25;19.50;;;10.70;;
30185;SDS011;31152;49.190;8.122;2023-12-14T05:28:54;30.58;;;15.82;;
30185;SDS011;31152;49.190;8.122;2023-12-14T05:31:21;24.27;;;13.75;;
30185;SDS011;31152;49.190;8.122;2023-12-14T05:33:50;24.25;;;13.65;;
30185;SDS011;31152;49.190;8.122;2023-12-14T05:36:16;22.75;;;13.07;;
30185;SDS011;31152;49.190;8.122;2023-12-14T05:38:43;26.13;;;13.40;;
30185;SDS011;31152;49.190;8.122;2023-12-14T05:41:10;23.25;;;15.00;;
30185;SDS011;31152;49.190;8.122;2023-12-14T05:43:37;24.88;;;14.93;;
30185;SDS011;31152;49.190;8.122;2023-12-14T05:46:04;27.08;;;15.15;;
30185;SDS011;31152;49.190;8.122;2023-12-14T05:48:31;25.77;;;14.63;;
30185;SDS011;31152;49.190;8.122;2023-12-14T05:51:00;27.17;;;15.32;;
30185;SDS011;31152;49.190;8.122;2023-12-14T05:53:27;28.00;;;16.42;;
30185;SDS011;31152;49.190;8.122;2023-12-14T05:55:54;27.42;;;16.02;;
30185;SDS011;31152;49.190;8.122;2023-12-14T05:58:21;24.83;;;15.65;;
30185;SDS011;31152;49.190;8.122;2023-12-14T06:00:47;25.60;;;15.18;;
30185;SDS011;31152;49.190;8.122;2023-12-14T06:03:14;27.00;;;14.63;;
30185;SDS011;31152;49.190;8.122;2023-12-14T06:05:41;23.00;;;13.38;;
30185;SDS011;31152;49.190;8.122;2023-12-14T06:08:08;24.30;;;14.05;;
30185;SDS011;31152;49.190;8.122;2023-12-14T06:10:37;26.50;;;13.77;;
30185;SDS011;31152;49.190;8.122;2023-12-14T06:13:07;27.55;;;13.73;;
30185;SDS011;31152;49.190;8.122;2023-12-14T06:15:34;23.05;;;12.88;;
30185;SDS011;31152;49.190;8.122;2023-12-14T06:18:00;21.60;;;10.45;;
30185;SDS011;31152;49.190;8.122;2023-12-14T06:20:27;19.80;;;11.32;;
30185;SDS011;31152;49.190;8.122;2023-12-14T06:22:59;18.08;;;11.45;;
30185;SDS011;31152;49.190;8.122;2023-12-14T06:25:25;20.58;;;10.68;;
30185;SDS011;31152;49.190;8.122;2023-12-14T06:27:52;16.35;;;9.75;;
30185;SDS011;31152;49.190;8.122;2023-12-14T06:30:19;28.85;;;10.27;;
30185;SDS011;31152;49.190;8.122;2023-12-14T06:32:45;19.38;;;9.13;;
30185;SDS011;31152;49.190;8.122;2023-12-14T06:35:12;13.88;;;8.07;;
30185;SDS011;31152;49.190;8.122;2023-12-14T06:37:40;17.67;;;7.85;;
30185;SDS011;31152;49.190;8.122;2023-12-14T06:40:08;14.32;;;7.72;;
30185;SDS011;31152;49.190;8.122;2023-12-14T06:42:35;13.25;;;7.40;;
30185;SDS011;31152;49.190;8.122;2023-12-14T06:45:03;12.75;;;6.68;;
30185;SDS011;31152;49.190;8.122;2023-12-14T06:47:34;15.35;;;7.28;;
30185;SDS011;31152;49.190;8.122;2023-12-14T06:50:01;16.80;;;7.10;;
30185;SDS011;31152;49.190;8.122;2023-12-14T06:52:28;16.38;;;7.38;;
30185;SDS011;31152;49.190;8.122;2023-12-14T06:54:57;12.40;;;6.68;;
30185;SDS011;31152;49.190;8.122;2023-12-14T06:57:24;16.73;;;7.95;;
30185;SDS011;31152;49.190;8.122;2023-12-14T06:59:55;15.57;;;7.90;;
30185;SDS011;31152;49.190;8.122;2023-12-14T07:02:21;15.30;;;7.97;;
30185;SDS011;31152;49.190;8.122;2023-12-14T07:04:51;16.95;;;8.63;;
30185;SDS011;31152;49.190;8.122;2023-12-14T07:07:17;17.02;;;9.80;;
30185;SDS011;31152;49.190;8.122;2023-12-14T07:09:44;15.20;;;8.80;;
30185;SDS011;31152;49.190;8.122;2023-12-14T07:12:12;18.58;;;8.27;;
30185;SDS011;31152;49.190;8.122;2023-12-14T07:14:40;16.13;;;8.02;;
30185;SDS011;31152;49.190;8.122;2023-12-14T07:17:07;15.15;;;8.15;;
30185;SDS011;31152;49.190;8.122;2023-12-14T07:19:33;17.85;;;8.52;;
30185;SDS011;31152;49.190;8.122;2023-12-14T07:22:02;14.60;;;7.82;;
30185;SDS011;31152;49.190;8.122;2023-12-14T07:24:28;16.27;;;7.75;;
30185;SDS011;31152;49.190;8.122;2023-12-14T07:27:05;17.23;;;7.88;;
30185;SDS011;31152;49.190;8.122;2023-12-14T07:29:32;14.82;;;7.95;;
30185;SDS011;31152;49.190;8.122;2023-12-14T07:32:01;19.15;;;8.48;;
30185;SDS011;31152;49.190;8.122;2023-12-14T07:34:28;14.88;;;7.32;;
30185;SDS011;31152;49.190;8.122;2023-12-14T07:36:55;12.90;;;6.95;;
30185;SDS011;31152;49.190;8.122;2023-12-14T07:39:22;12.57;;;6.47;;
30185;SDS011;31152;49.190;8.122;2023-12-14T07:41:52;14.23;;;6.75;;
30185;SDS011;31152;49.190;8.122;2023-12-14T07:44:21;11.68;;;6.88;;
30185;SDS011;31152;49.190;8.122;2023-12-14T07:46:51;14.75;;;6.97;;
30185;SDS011;31152;49.190;8.122;2023-12-14T07:49:20;15.98;;;6.88;;
30185;SDS011;31152;49.190;8.122;2023-12-14T07:51:49;16.80;;;7.00;;
30185;SDS011;31152;49.190;8.122;2023-12-14T07:54:16;13.88;;;6.93;;
30185;SDS011;31152;49.190;8.122;2023-12-14T07:56:43;16.25;;;8.50;;
30185;SDS011;31152;49.190;8.122;2023-12-14T07:59:12;18.38;;;7.00;;
30185;SDS011;31152;49.190;8.122;2023-12-14T08:01:39;16.35;;;7.50;;
30185;SDS011;31152;49.190;8.122;2023-12-14T08:04:07;12.15;;;7.70;;
30185;SDS011;31152;49.190;8.122;2023-12-14T08:06:36;16.13;;;7.75;;
30185;SDS011;31152;49.190;8.122;2023-12-14T08:09:05;14.30;;;7.60;;
30185;SDS011;31152;49.190;8.122;2023-12-14T08:11:34;13.38;;;6.85;;
30185;SDS011;31152;49.190;8.122;2023-12-14T08:14:01;15.73;;;6.53;;
30185;SDS011;31152;49.190;8.122;2023-12-14T08:16:32;12.32;;;6.18;;
30185;SDS011;31152;49.190;8.122;2023-12-14T08:18:58;13.68;;;6.85;;
30185;SDS011;31152;49.190;8.122;2023-12-14T08:21:25;11.95;;;5.53;;
30185;SDS011;31152;49.190;8.122;2023-12-14T08:23:52;12.88;;;6.13;;
30185;SDS011;31152;49.190;8.122;2023-12-14T08:26:24;12.18;;;5.60;;
30185;SDS011;31152;49.190;8.122;2023-12-14T08:28:50;15.20;;;6.95;;
30185;SDS011;31152;49.190;8.122;2023-12-14T08:31:17;14.35;;;5.97;;
30185;SDS011;31152;49.190;8.122;2023-12-14T08:33:46;10.13;;;5.72;;
30185;SDS011;31152;49.190;8.122;2023-12-14T08:36:16;12.60;;;6.03;;
30185;SDS011;31152;49.190;8.122;2023-12-14T08:38:45;11.60;;;6.10;;
30185;SDS011;31152;49.190;8.122;2023-12-14T08:41:14;14.75;;;5.95;;
30185;SDS011;31152;49.190;8.122;2023-12-14T08:43:42;11.52;;;5.40;;
30185;SDS011;31152;49.190;8.122;2023-12-14T08:46:09;9.55;;;5.45;;
30185;SDS011;31152;49.190;8.122;2023-12-14T08:48:36;9.75;;;5.65;;
30185;SDS011;31152;49.190;8.122;2023-12-14T08:51:04;12.60;;;5.10;;
30185;SDS011;31152;49.190;8.122;2023-12-14T08:53:31;10.80;;;3.95;;
30185;SDS011;31152;49.190;8.122;2023-12-14T08:55:58;9.27;;;4.15;;
30185;SDS011;31152;49.190;8.122;2023-12-14T08:58:25;9.90;;;4.30;;
30185;SDS011;31152;49.190;8.122;2023-12-14T09:00:52;10.20;;;4.13;;
30185;SDS011;31152;49.190;8.122;2023-12-14T09:03:19;8.85;;;3.72;;
30185;SDS011;31152;49.190;8.122;2023-12-14T09:05:47;7.18;;;3.33;;
30185;SDS011;31152;49.190;8.122;2023-12-14T09:08:17;7.03;;;3.28;;
30185;SDS011;31152;49.190;8.122;2023-12-14T09:10:43;10.18;;;3.60;;
30185;SDS011;31152;49.190;8.122;2023-12-14T09:13:12;9.63;;;3.47;;
30185;SDS011;31152;49.190;8.122;2023-12-14T09:15:44;10.60;;;4.10;;
30185;SDS011;31152;49.190;8.122;2023-12-14T09:18:11;12.48;;;3.58;;
30185;SDS011;31152;49.190;8.122;2023-12-14T09:20:38;7.43;;;3.40;;
30185;SDS011;31152;49.190;8.122;2023-12-14T09:23:09;11.60;;;3.92;;
30185;SDS011;31152;49.190;8.122;2023-12-14T09:25:38;6.68;;;3.90;;
30185;SDS011;31152;49.190;8.122;2023-12-14T09:28:09;12.82;;;4.00;;
30185;SDS011;31152;49.190;8.122;2023-12-14T09:30:36;7.45;;;4.00;;
30185;SDS011;31152;49.190;8.122;2023-12-14T09:33:03;9.40;;;3.90;;
30185;SDS011;31152;49.190;8.122;2023-12-14T09:35:30;7.88;;;4.03;;
30185;SDS011;31152;49.190;8.122;2023-12-14T09:37:57;13.55;;;4.68;;
30185;SDS011;31152;49.190;8.122;2023-12-14T09:40:27;11.90;;;4.25;;
30185;SDS011;31152;49.190;8.122;2023-12-14T09:42:54;6.07;;;3.05;;
30185;SDS011;31152;49.190;8.122;2023-12-14T09:45:29;10.07;;;4.00;;
30185;SDS011;31152;49.190;8.122;2023-12-14T09:47:56;9.30;;;3.90;;
30185;SDS011;31152;49.190;8.122;2023-12-14T09:50:27;8.18;;;3.83;;
30185;SDS011;31152;49.190;8.122;2023-12-14T09:52:54;9.18;;;4.97;;
30185;SDS011;31152;49.190;8.122;2023-12-14T09:55:21;9.10;;;4.00;;
30185;SDS011;31152;49.190;8.122;2023-12-14T09:57:48;11.50;;;4.43;;
30185;SDS011;31152;49.190;8.122;2023-12-14T10:00:31;8.35;;;4.15;;
30185;SDS011;31152;49.190;8.122;2023-12-14T10:03:17;7.82;;;4.18;;
30185;SDS011;31152;49.190;8.122;2023-12-14T10:05:44;9.93;;;4.97;;
30185;SDS011;31152;49.190;8.122;2023-12-14T10:08:11;9.10;;;4.43;;
30185;SDS011;31152;49.190;8.122;2023-12-14T10:10:38;12.35;;;4.60;;
30185;SDS011;31152;49.190;8.122;2023-12-14T10:13:05;11.20;;;5.10;;
30185;SDS011;31152;49.190;8.122;2023-12-14T10:15:41;8.48;;;4.78;;
30185;SDS011;31152;49.190;8.122;2023-12-14T10:18:08;10.98;;;4.68;;
30185;SDS011;31152;49.190;8.122;2023-12-14T10:20:36;10.38;;;4.75;;
30185;SDS011;31152;49.190;8.122;2023-12-14T10:23:04;9.20;;;4.93;;
30185;SDS011;31152;49.190;8.122;2023-12-14T10:25:32;10.27;;;5.50;;
30185;SDS011;31152;49.190;8.122;2023-12-14T10:27:59;11.10;;;4.57;;
30185;SDS011;31152;49.190;8.122;2023-12-14T10:30:29;8.30;;;5.15;;
30185;SDS011;31152;49.190;8.122;2023-12-14T10:33:01;9.88;;;5.18;;
30185;SDS011;31152;49.190;8.122;2023-12-14T10:35:31;14.02;;;5.50;;
30185;SDS011;31152;49.190;8.122;2023-12-14T10:37:58;14.88;;;6.75;;
30185;SDS011;31152;49.190;8.122;2023-12-14T10:40:32;12.88;;;5.78;;
30185;SDS011;31152;49.190;8.122;2023-12-14T10:42:59;10.85;;;6.75;;
30185;SDS011;31152;49.190;8.122;2023-12-14T10:45:29;11.63;;;5.82;;
30185;SDS011;31152;49.190;8.122;2023-12-14T10:47:59;10.60;;;5.72;;
30185;SDS011;31152;49.190;8.122;2023-12-14T10:50:31;13.00;;;5.40;;
30185;SDS011;31152;49.190;8.122;2023-12-14T10:52:58;9.43;;;5.05;;
30185;SDS011;31152;49.190;8.122;2023-12-14T10:58:10;8.80;;;5.13;;
30185;SDS011;31152;49.190;8.122;2023-12-14T11:00:40;10.15;;;4.85;;
30185;SDS011;31152;49.190;8.122;2023-12-14T11:03:12;14.35;;;6.00;;
30185;SDS011;31152;49.190;8.122;2023-12-14T11:05:41;12.55;;;5.80;;
30185;SDS011;31152;49.190;8.122;2023-12-14T11:08:08;9.35;;;5.18;;
30185;SDS011;31152;49.190;8.122;2023-12-14T11:10:37;7.75;;;4.30;;
30185;SDS011;31152;49.190;8.122;2023-12-14T11:13:10;10.75;;;4.57;;
30185;SDS011;31152;49.190;8.122;2023-12-14T11:15:40;7.30;;;4.45;;
30185;SDS011;31152;49.190;8.122;2023-12-14T11:20:48;7.82;;;4.50;;
30185;SDS011;31152;49.190;8.122;2023-12-14T11:23:37;10.15;;;4.35;;
30185;SDS011;31152;49.190;8.122;2023-12-14T11:26:10;8.32;;;3.88;;
30185;SDS011;31152;49.190;8.122;2023-12-14T11:28:38;8.63;;;4.07;;
30185;SDS011;31152;49.190;8.122;2023-12-14T11:31:11;7.57;;;3.42;;
30185;SDS011;31152;49.190;8.122;2023-12-14T11:33:39;5.60;;;3.38;;
30185;SDS011;31152;49.190;8.122;2023-12-14T11:36:13;5.97;;;3.38;;
30185;SDS011;31152;49.190;8.122;2023-12-14T11:38:41;4.97;;;3.15;;
30185;SDS011;31152;49.190;8.122;2023-12-14T11:41:09;7.05;;;3.50;;
30185;SDS011;31152;49.190;8.122;2023-12-14T11:43:41;6.03;;;3.60;;
30185;SDS011;31152;49.190;8.122;2023-12-14T11:46:10;9.25;;;3.45;;
30185;SDS011;31152;49.190;8.122;2023-12-14T11:48:37;5.50;;;3.40;;
30185;SDS011;31152;49.190;8.122;2023-12-14T11:51:07;7.05;;;3.58;;
30185;SDS011;31152;49.190;8.122;2023-12-14T11:53:35;10.27;;;4.38;;
30185;SDS011;31152;49.190;8.122;2023-12-14T11:56:05;5.32;;;3.63;;
30185;SDS011;31152;49.190;8.122;2023-12-14T11:58:35;8.95;;;4.15;;
30185;SDS011;31152;49.190;8.122;2023-12-14T12:01:16;9.68;;;4.30;;
30185;SDS011;31152;49.190;8.122;2023-12-14T12:03:51;7.10;;;4.10;;
30185;SDS011;31152;49.190;8.122;2023-12-14T12:06:21;10.48;;;4.60;;
30185;SDS011;31152;49.190;8.122;2023-12-14T12:08:50;8.23;;;4.35;;
30185;SDS011;31152;49.190;8.122;2023-12-14T12:11:22;9.35;;;4.05;;
30185;SDS011;31152;49.190;8.122;2023-12-14T12:13:53;6.60;;;4.30;;
30185;SDS011;31152;49.190;8.122;2023-12-14T12:16:21;7.75;;;4.38;;
30185;SDS011;31152;49.190;8.122;2023-12-14T12:18:48;8.85;;;4.78;;
30185;SDS011;31152;49.190;8.122;2023-12-14T12:21:17;6.43;;;4.22;;
30185;SDS011;31152;49.190;8.122;2023-12-14T12:23:44;12.05;;;4.80;;
30185;SDS011;31152;49.190;8.122;2023-12-14T12:26:13;7.80;;;4.45;;
30185;SDS011;31152;49.190;8.122;2023-12-14T12:28:40;6.28;;;3.28;;
30185;SDS011;31152;49.190;8.122;2023-12-14T12:31:07;8.82;;;3.67;;
30185;SDS011;31152;49.190;8.122;2023-12-14T12:33:34;7.63;;;3.70;;
30185;SDS011;31152;49.190;8.122;2023-12-14T12:36:05;5.63;;;3.55;;
30185;SDS011;31152;49.190;8.122;2023-12-14T12:38:32;5.70;;;3.15;;
30185;SDS011;31152;49.190;8.122;2023-12-14T12:41:00;6.97;;;3.63;;
30185;SDS011;31152;49.190;8.122;2023-12-14T12:43:27;6.45;;;3.58;;
30185;SDS011;31152;49.190;8.122;2023-12-14T12:45:54;7.63;;;3.55;;
30185;SDS011;31152;49.190;8.122;2023-12-14T12:48:25;6.78;;;4.05;;
30185;SDS011;31152;49.190;8.122;2023-12-14T12:50:53;5.70;;;3.20;;
30185;SDS011;31152;49.190;8.122;2023-12-14T12:53:20;9.93;;;3.80;;
30185;SDS011;31152;49.190;8.122;2023-12-14T12:55:51;6.72;;;4.18;;
30185;SDS011;31152;49.190;8.122;2023-12-14T12:58:18;8.45;;;3.75;;
30185;SDS011;31152;49.190;8.122;2023-12-14T13:00:45;8.02;;;3.35;;
30185;SDS011;31152;49.190;8.122;2023-12-14T13:03:12;8.30;;;3.63;;
30185;SDS011;31152;49.190;8.122;2023-12-14T13:05:42;4.40;;;2.83;;
30185;SDS011;31152;49.190;8.122;2023-12-14T13:08:09;4.90;;;2.92;;
30185;SDS011;31152;49.190;8.122;2023-12-14T13:10:36;4.72;;;2.50;;
30185;SDS011;31152;49.190;8.122;2023-12-14T13:13:05;5.03;;;2.75;;
30185;SDS011;31152;49.190;8.122;2023-12-14T13:15:33;5.97;;;2.40;;
30185;SDS011;31152;49.190;8.122;2023-12-14T13:18:07;5.80;;;2.28;;
30185;SDS011;31152;49.190;8.122;2023-12-14T13:20:34;3.60;;;2.15;;
30185;SDS011;31152;49.190;8.122;2023-12-14T13:23:02;4.57;;;2.13;;
30185;SDS011;31152;49.190;8.122;2023-12-14T13:25:29;3.25;;;2.00;;
30185;SDS011;31152;49.190;8.122;2023-12-14T13:27:55;2.50;;;1.85;;
30185;SDS011;31152;49.190;8.122;2023-12-14T13:30:25;2.95;;;1.45;;
30185;SDS011;31152;49.190;8.122;2023-12-14T13:32:53;3.90;;;1.83;;
30185;SDS011;31152;49.190;8.122;2023-12-14T13:35:24;7.47;;;2.10;;
30185;SDS011;31152;49.190;8.122;2023-12-14T13:37:51;4.72;;;1.60;;
30185;SDS011;31152;49.190;8.122;2023-12-14T13:40:18;2.08;;;1.67;;
30185;SDS011;31152;49.190;8.122;2023-12-14T13:42:48;3.85;;;1.77;;
30185;SDS011;31152;49.190;8.122;2023-12-14T13:45:31;4.28;;;2.25;;
30185;SDS011;31152;49.190;8.122;2023-12-14T13:48:00;4.22;;;2.28;;
30185;SDS011;31152;49.190;8.122;2023-12-14T13:50:27;2.90;;;2.03;;
30185;SDS011;31152;49.190;8.122;2023-12-14T13:52:55;3.72;;;1.95;;
30185;SDS011;31152;49.190;8.122;2023-12-14T13:55:22;6.30;;;1.73;;
30185;SDS011;31152;49.190;8.122;2023-12-14T13:57:49;4.55;;;2.20;;
30185;SDS011;31152;49.190;8.122;2023-12-14T14:00:16;3.10;;;2.13;;
30185;SDS011;31152;49.190;8.122;2023-12-14T14:02:45;3.03;;;2.10;;
30185;SDS011;31152;49.190;8.122;2023-12-14T14:05:12;3.75;;;1.95;;
30185;SDS011;31152;49.190;8.122;2023-12-14T14:07:39;4.22;;;2.38;;
30185;SDS011;31152;49.190;8.122;2023-12-14T14:10:06;4.57;;;2.25;;
30185;SDS011;31152;49.190;8.122;2023-12-14T14:12:33;5.85;;;2.75;;
30185;SDS011;31152;49.190;8.122;2023-12-14T14:15:03;5.50;;;2.60;;
30185;SDS011;31152;49.190;8.122;2023-12-14T14:17:33;3.40;;;2.28;;
30185;SDS011;31152;49.190;8.122;2023-12-14T14:20:00;5.65;;;2.70;;
30185;SDS011;31152;49.190;8.122;2023-12-14T14:22:27;5.28;;;2.33;;
30185;SDS011;31152;49.190;8.122;2023-12-14T14:24:54;6.93;;;2.47;;
30185;SDS011;31152;49.190;8.122;2023-12-14T14:27:22;4.82;;;2.00;;
30185;SDS011;31152;49.190;8.122;2023-12-14T14:29:49;3.50;;;2.10;;
30185;SDS011;31152;49.190;8.122;2023-12-14T14:32:22;3.78;;;1.75;;
30185;SDS011;31152;49.190;8.122;2023-12-14T14:34:49;3.88;;;2.22;;
30185;SDS011;31152;49.190;8.122;2023-12-14T14:37:16;4.70;;;2.50;;
30185;SDS011;31152;49.190;8.122;2023-12-14T14:39:43;4.38;;;2.28;;
30185;SDS011;31152;49.190;8.122;2023-12-14T14:42:09;5.63;;;3.00;;
30185;SDS011;31152;49.190;8.122;2023-12-14T14:44:39;5.75;;;3.35;;
30185;SDS011;31152;49.190;8.122;2023-12-14T14:47:06;7.30;;;3.45;;